sensor_id;sensor_type;location;lat;lon;timestamp;noise_LAeq;noise_LA_min;noise_LA_max;noise_LA01;noise_LA95
76382;Laerm;65202;52.520;10.528;2024-03-17T00:00:38;36.86;31.58;51.55;;
76382;Laerm;65202;52.520;10.528;2024-03-17T00:03:08;36.77;31.94;44.65;;
76382;Laerm;65202;52.520;10.528;2024-03-17T00:05:36;37.06;32.65;43.68;;
76382;Laerm;65202;52.520;10.528;2024-03-17T00:08:03;37.15;31.37;45.19;;
76382;Laerm;65202;52.520;10.528;2024-03-17T00:10:32;37.51;33.86;43.68;;
76382;Laerm;65202;52.520;10.528;2024-03-17T00:12:59;37.12;33.30;44.26;;
76382;Laerm;65202;52.520;10.528;2024-03-17T00:15:26;36.66;31.15;43.90;;
76382;Laerm;65202;52.520;10.528;2024-03-17T00:17:52;37.91;33.29;45.30;;
76382;Laerm;65202;52.520;10.528;2024-03-17T00:20:19;37.48;32.41;45.13;;
76382;Laerm;65202;52.520;10.528;2024-03-17T00:22:50;37.29;32.35;45.70;;
76382;Laerm;65202;52.520;10.528;2024-03-17T00:25:17;37.89;31.35;45.43;;
76382;Laerm;65202;52.520;10.528;2024-03-17T00:27:46;36.92;31.84;43.60;;
76382;Laerm;65202;52.520;10.528;2024-03-17T00:30:14;40.18;34.53;48.58;;
76382;Laerm;65202;52.520;10.528;2024-03-17T00:32:42;36.70;30.88;45.58;;
76382;Laerm;65202;52.520;10.528;2024-03-17T00:35:10;37.10;31.24;45.87;;
76382;Laerm;65202;52.520;10.528;2024-03-17T00:37:40;37.51;30.93;44.88;;
76382;Laerm;65202;52.520;10.528;2024-03-17T00:40:07;37.53;31.29;57.13;;
76382;Laerm;65202;52.520;10.528;2024-03-17T00:42:33;36.79;31.12;45.50;;
76382;Laerm;65202;52.520;10.528;2024-03-17T00:45:00;43.88;32.69;62.10;;
76382;Laerm;65202;52.520;10.528;2024-03-17T00:47:26;35.88;30.73;47.02;;
76382;Laerm;65202;52.520;10.528;2024-03-17T00:49:53;36.29;30.86;43.45;;
76382;Laerm;65202;52.520;10.528;2024-03-17T00:52:19;37.06;30.67;43.81;;
76382;Laerm;65202;52.520;10.528;2024-03-17T00:54:49;39.45;32.73;52.42;;
76382;Laerm;65202;52.520;10.528;2024-03-17T00:57:15;37.01;32.40;45.01;;
76382;Laerm;65202;52.520;10.528;2024-03-17T00:59:42;37.68;32.15;51.58;;
76382;Laerm;65202;52.520;10.528;2024-03-17T01:02:12;36.44;32.29;44.01;;
76382;Laerm;65202;52.520;10.528;2024-03-17T01:04:40;36.50;30.85;44.08;;
76382;Laerm;65202;52.520;10.528;2024-03-17T01:07:06;36.33;30.83;44.65;;
76382;Laerm;65202;52.520;10.528;2024-03-17T01:09:33;36.00;30.91;43.74;;
76382;Laerm;65202;52.520;10.528;2024-03-17T01:11:59;36.08;31.11;43.37;;
76382;Laerm;65202;52.520;10.528;2024-03-17T01:14:27;36.04;30.80;48.75;;
76382;Laerm;65202;52.520;10.528;2024-03-17T01:16:55;35.72;30.82;44.90;;
76382;Laerm;65202;52.520;10.528;2024-03-17T01:19:22;35.79;30.79;43.79;;
76382;Laerm;65202;52.520;10.528;2024-03-17T01:21:49;35.40;30.56;43.65;;
76382;Laerm;65202;52.520;10.528;2024-03-17T01:24:17;35.42;30.63;45.09;;
76382;Laerm;65202;52.520;10.528;2024-03-17T01:26:44;35.86;30.53;44.05;;
76382;Laerm;65202;52.520;10.528;2024-03-17T01:29:11;42.75;30.65;59.89;;
76382;Laerm;65202;52.520;10.528;2024-03-17T01:31:38;35.72;30.50;44.30;;
76382;Laerm;65202;52.520;10.528;2024-03-17T01:34:04;35.99;30.50;50.82;;
76382;Laerm;65202;52.520;10.528;2024-03-17T01:36:31;36.97;30.81;49.77;;
76382;Laerm;65202;52.520;10.528;2024-03-17T01:38:57;35.93;30.58;51.13;;
76382;Laerm;65202;52.520;10.528;2024-03-17T01:41:24;37.58;30.70;50.96;;
76382;Laerm;65202;52.520;10.528;2024-03-17T01:43:51;35.27;30.89;44.05;;
76382;Laerm;65202;52.520;10.528;2024-03-17T01:46:17;34.96;30.40;44.72;;
76382;Laerm;65202;52.520;10.528;2024-03-17T01:48:44;35.68;30.64;44.45;;
76382;Laerm;65202;52.520;10.528;2024-03-17T01:51:14;36.82;31.21;45.44;;
76382;Laerm;65202;52.520;10.528;2024-03-17T01:53:42;35.75;30.89;45.91;;
76382;Laerm;65202;52.520;10.528;2024-03-17T01:56:10;36.03;30.83;50.54;;
76382;Laerm;65202;52.520;10.528;2024-03-17T01:58:37;35.37;30.68;47.50;;
76382;Laerm;65202;52.520;10.528;2024-03-17T02:01:04;41.82;30.54;62.36;;
76382;Laerm;65202;52.520;10.528;2024-03-17T02:03:31;38.72;31.81;60.54;;
76382;Laerm;65202;52.520;10.528;2024-03-17T02:06:01;37.17;30.79;59.20;;
76382;Laerm;65202;52.520;10.528;2024-03-17T02:08:27;35.41;30.50;48.27;;
76382;Laerm;65202;52.520;10.528;2024-03-17T02:10:54;36.12;30.43;43.96;;
76382;Laerm;65202;52.520;10.528;2024-03-17T02:13:22;36.62;30.87;44.01;;
76382;Laerm;65202;52.520;10.528;2024-03-17T02:15:48;37.00;31.35;44.52;;
76382;Laerm;65202;52.520;10.528;2024-03-17T02:18:16;35.80;30.75;45.54;;
76382;Laerm;65202;52.520;10.528;2024-03-17T02:20:43;37.63;30.45;54.79;;
76382;Laerm;65202;52.520;10.528;2024-03-17T02:23:21;37.94;31.37;59.29;;
76382;Laerm;65202;52.520;10.528;2024-03-17T02:25:48;34.92;30.44;42.96;;
76382;Laerm;65202;52.520;10.528;2024-03-17T02:28:14;35.04;30.27;44.68;;
76382;Laerm;65202;52.520;10.528;2024-03-17T02:30:41;35.13;30.52;46.07;;
76382;Laerm;65202;52.520;10.528;2024-03-17T02:33:08;35.01;30.30;44.71;;
76382;Laerm;65202;52.520;10.528;2024-03-17T02:35:34;36.19;30.70;44.05;;
76382;Laerm;65202;52.520;10.528;2024-03-17T02:38:01;36.38;31.01;50.59;;
76382;Laerm;65202;52.520;10.528;2024-03-17T02:40:29;35.88;30.58;43.79;;
76382;Laerm;65202;52.520;10.528;2024-03-17T02:42:55;35.78;30.85;44.80;;
76382;Laerm;65202;52.520;10.528;2024-03-17T02:45:22;36.40;31.48;43.85;;
76382;Laerm;65202;52.520;10.528;2024-03-17T02:47:48;35.60;30.73;44.47;;
76382;Laerm;65202;52.520;10.528;2024-03-17T02:50:16;35.37;30.63;43.45;;
76382;Laerm;65202;52.520;10.528;2024-03-17T02:52:43;35.27;30.74;43.72;;
76382;Laerm;65202;52.520;10.528;2024-03-17T02:55:10;35.21;30.65;43.92;;
76382;Laerm;65202;52.520;10.528;2024-03-17T02:57:36;36.49;31.34;45.88;;
76382;Laerm;65202;52.520;10.528;2024-03-17T03:00:03;36.12;30.60;44.10;;
76382;Laerm;65202;52.520;10.528;2024-03-17T03:02:32;35.24;30.45;44.66;;
76382;Laerm;65202;52.520;10.528;2024-03-17T03:04:58;36.42;30.56;45.20;;
76382;Laerm;65202;52.520;10.528;2024-03-17T03:07:24;35.66;30.95;47.39;;
76382;Laerm;65202;52.520;10.528;2024-03-17T03:09:51;36.50;31.31;51.73;;
76382;Laerm;65202;52.520;10.528;2024-03-17T03:12:17;38.63;31.29;50.35;;
76382;Laerm;65202;52.520;10.528;2024-03-17T03:14:44;38.89;31.39;50.96;;
76382;Laerm;65202;52.520;10.528;2024-03-17T03:17:11;36.07;30.83;44.01;;
76382;Laerm;65202;52.520;10.528;2024-03-17T03:19:37;35.14;30.80;43.88;;
76382;Laerm;65202;52.520;10.528;2024-03-17T03:22:04;35.18;30.51;52.84;;
76382;Laerm;65202;52.520;10.528;2024-03-17T03:24:30;35.38;30.41;45.42;;
76382;Laerm;65202;52.520;10.528;2024-03-17T03:26:59;35.18;30.39;44.30;;
76382;Laerm;65202;52.520;10.528;2024-03-17T03:29:25;36.11;30.60;45.21;;
76382;Laerm;65202;52.520;10.528;2024-03-17T03:31:52;39.86;31.10;60.17;;
76382;Laerm;65202;52.520;10.528;2024-03-17T03:34:18;35.87;31.11;50.24;;
76382;Laerm;65202;52.520;10.528;2024-03-17T03:36:45;36.28;30.95;43.61;;
76382;Laerm;65202;52.520;10.528;2024-03-17T03:39:11;35.46;30.67;44.53;;
76382;Laerm;65202;52.520;10.528;2024-03-17T03:41:40;44.99;30.57;62.73;;
76382;Laerm;65202;52.520;10.528;2024-03-17T03:44:06;35.48;30.54;43.15;;
76382;Laerm;65202;52.520;10.528;2024-03-17T03:46:34;36.06;30.97;43.58;;
76382;Laerm;65202;52.520;10.528;2024-03-17T03:49:01;35.23;30.56;43.41;;
76382;Laerm;65202;52.520;10.528;2024-03-17T03:51:27;35.04;30.47;44.30;;
76382;Laerm;65202;52.520;10.528;2024-03-17T03:53:54;35.85;31.08;48.95;;
76382;Laerm;65202;52.520;10.528;2024-03-17T03:56:21;45.68;30.73;64.33;;
76382;Laerm;65202;52.520;10.528;2024-03-17T03:58:49;35.13;30.48;45.43;;
76382;Laerm;65202;52.520;10.528;2024-03-17T04:01:16;35.94;30.63;44.77;;
76382;Laerm;65202;52.520;10.528;2024-03-17T04:03:48;36.68;30.34;44.83;;
76382;Laerm;65202;52.520;10.528;2024-03-17T04:06:16;37.35;31.52;43.56;;
76382;Laerm;65202;52.520;10.528;2024-03-17T04:08:43;35.95;31.36;44.56;;
76382;Laerm;65202;52.520;10.528;2024-03-17T04:11:10;37.36;30.82;63.39;;
76382;Laerm;65202;52.520;10.528;2024-03-17T04:13:37;37.84;31.82;61.69;;
76382;Laerm;65202;52.520;10.528;2024-03-17T04:16:05;36.37;31.88;44.61;;
76382;Laerm;65202;52.520;10.528;2024-03-17T04:18:33;37.32;31.05;45.29;;
76382;Laerm;65202;52.520;10.528;2024-03-17T04:21:05;37.57;32.26;45.23;;
76382;Laerm;65202;52.520;10.528;2024-03-17T04:23:33;37.51;31.13;46.75;;
76382;Laerm;65202;52.520;10.528;2024-03-17T04:26:01;44.13;32.67;58.31;;
76382;Laerm;65202;52.520;10.528;2024-03-17T04:28:27;40.21;32.31;53.10;;
76382;Laerm;65202;52.520;10.528;2024-03-17T04:31:03;41.11;32.16;59.12;;
76382;Laerm;65202;52.520;10.528;2024-03-17T04:33:31;42.49;32.47;54.89;;
76382;Laerm;65202;52.520;10.528;2024-03-17T04:35:58;44.08;33.18;54.13;;
76382;Laerm;65202;52.520;10.528;2024-03-17T04:38:26;44.01;34.51;57.84;;
76382;Laerm;65202;52.520;10.528;2024-03-17T04:40:53;43.75;35.08;54.71;;
76382;Laerm;65202;52.520;10.528;2024-03-17T04:43:33;42.76;32.49;53.08;;
76382;Laerm;65202;52.520;10.528;2024-03-17T04:46:02;43.11;36.90;56.44;;
76382;Laerm;65202;52.520;10.528;2024-03-17T04:48:33;46.30;33.83;59.96;;
76382;Laerm;65202;52.520;10.528;2024-03-17T04:51:00;46.04;34.41;61.78;;
76382;Laerm;65202;52.520;10.528;2024-03-17T04:53:27;46.67;33.59;60.97;;
76382;Laerm;65202;52.520;10.528;2024-03-17T04:56:05;44.38;34.30;61.00;;
76382;Laerm;65202;52.520;10.528;2024-03-17T04:58:32;44.18;33.30;59.34;;
76382;Laerm;65202;52.520;10.528;2024-03-17T05:01:08;46.45;31.74;61.51;;
76382;Laerm;65202;52.520;10.528;2024-03-17T05:03:35;48.83;35.12;63.90;;
76382;Laerm;65202;52.520;10.528;2024-03-17T05:06:03;49.58;36.15;60.60;;
76382;Laerm;65202;52.520;10.528;2024-03-17T05:08:32;47.99;35.68;61.51;;
76382;Laerm;65202;52.520;10.528;2024-03-17T05:11:01;46.72;32.51;60.35;;
76382;Laerm;65202;52.520;10.528;2024-03-17T05:13:32;47.99;35.10;61.12;;
76382;Laerm;65202;52.520;10.528;2024-03-17T05:16:02;50.68;35.20;65.22;;
76382;Laerm;65202;52.520;10.528;2024-03-17T05:18:32;49.27;36.16;61.61;;
76382;Laerm;65202;52.520;10.528;2024-03-17T05:21:03;49.32;36.19;61.71;;
76382;Laerm;65202;52.520;10.528;2024-03-17T05:23:33;50.75;37.16;63.14;;
76382;Laerm;65202;52.520;10.528;2024-03-17T05:26:00;50.33;37.24;63.66;;
76382;Laerm;65202;52.520;10.528;2024-03-17T05:28:28;48.70;37.15;64.00;;
76382;Laerm;65202;52.520;10.528;2024-03-17T05:30:56;48.33;35.45;69.84;;
76382;Laerm;65202;52.520;10.528;2024-03-17T05:33:25;46.79;37.04;63.30;;
76382;Laerm;65202;52.520;10.528;2024-03-17T05:35:56;46.94;34.98;61.85;;
76382;Laerm;65202;52.520;10.528;2024-03-17T05:38:28;48.93;36.01;62.02;;
76382;Laerm;65202;52.520;10.528;2024-03-17T05:41:00;45.72;36.28;57.54;;
76382;Laerm;65202;52.520;10.528;2024-03-17T05:43:29;43.94;34.37;60.62;;
76382;Laerm;65202;52.520;10.528;2024-03-17T05:45:58;45.02;34.21;59.91;;
76382;Laerm;65202;52.520;10.528;2024-03-17T05:48:25;46.85;34.18;63.10;;
76382;Laerm;65202;52.520;10.528;2024-03-17T05:50:52;45.94;34.91;61.30;;
76382;Laerm;65202;52.520;10.528;2024-03-17T05:53:19;45.01;34.95;58.55;;
76382;Laerm;65202;52.520;10.528;2024-03-17T05:55:46;47.57;34.90;65.51;;
76382;Laerm;65202;52.520;10.528;2024-03-17T05:58:13;48.51;35.95;67.22;;
76382;Laerm;65202;52.520;10.528;2024-03-17T06:00:40;44.63;35.86;63.45;;
76382;Laerm;65202;52.520;10.528;2024-03-17T06:03:07;44.41;32.68;60.70;;
76382;Laerm;65202;52.520;10.528;2024-03-17T06:05:35;43.38;36.21;53.45;;
76382;Laerm;65202;52.520;10.528;2024-03-17T06:08:04;45.12;37.74;55.78;;
76382;Laerm;65202;52.520;10.528;2024-03-17T06:10:32;44.79;33.69;57.57;;
76382;Laerm;65202;52.520;10.528;2024-03-17T06:12:59;47.30;38.19;60.42;;
76382;Laerm;65202;52.520;10.528;2024-03-17T06:15:26;44.64;34.21;54.58;;
76382;Laerm;65202;52.520;10.528;2024-03-17T06:17:53;47.98;32.81;63.04;;
76382;Laerm;65202;52.520;10.528;2024-03-17T06:20:22;48.78;35.58;66.39;;
76382;Laerm;65202;52.520;10.528;2024-03-17T06:22:50;50.49;37.45;65.16;;
76382;Laerm;65202;52.520;10.528;2024-03-17T06:25:16;44.61;35.27;57.84;;
76382;Laerm;65202;52.520;10.528;2024-03-17T06:27:43;42.34;33.89;53.88;;
76382;Laerm;65202;52.520;10.528;2024-03-17T06:30:13;46.00;37.69;57.20;;
76382;Laerm;65202;52.520;10.528;2024-03-17T06:32:44;49.86;37.76;69.79;;
76382;Laerm;65202;52.520;10.528;2024-03-17T06:35:14;46.85;37.20;63.04;;
76382;Laerm;65202;52.520;10.528;2024-03-17T06:37:52;44.64;36.31;60.56;;
76382;Laerm;65202;52.520;10.528;2024-03-17T06:40:18;44.03;32.30;56.28;;
76382;Laerm;65202;52.520;10.528;2024-03-17T06:42:45;45.52;35.88;57.37;;
76382;Laerm;65202;52.520;10.528;2024-03-17T06:45:11;44.92;36.83;56.12;;
76382;Laerm;65202;52.520;10.528;2024-03-17T06:47:38;52.34;35.86;71.91;;
76382;Laerm;65202;52.520;10.528;2024-03-17T06:50:06;46.26;36.85;64.88;;
76382;Laerm;65202;52.520;10.528;2024-03-17T06:52:36;46.70;35.96;61.74;;
76382;Laerm;65202;52.520;10.528;2024-03-17T06:55:06;47.89;34.73;65.10;;
76382;Laerm;65202;52.520;10.528;2024-03-17T06:57:35;46.10;37.78;62.61;;
76382;Laerm;65202;52.520;10.528;2024-03-17T07:00:02;46.21;36.82;60.17;;
76382;Laerm;65202;52.520;10.528;2024-03-17T07:02:32;45.88;36.56;65.56;;
76382;Laerm;65202;52.520;10.528;2024-03-17T07:04:58;44.95;35.74;57.30;;
76382;Laerm;65202;52.520;10.528;2024-03-17T07:07:28;44.42;36.08;61.54;;
76382;Laerm;65202;52.520;10.528;2024-03-17T07:09:54;46.64;34.72;64.72;;
76382;Laerm;65202;52.520;10.528;2024-03-17T07:12:21;45.64;34.32;63.33;;
76382;Laerm;65202;52.520;10.528;2024-03-17T07:14:51;46.21;35.11;61.15;;
76382;Laerm;65202;52.520;10.528;2024-03-17T07:17:18;49.04;34.74;68.75;;
76382;Laerm;65202;52.520;10.528;2024-03-17T07:19:47;42.86;34.95;57.81;;
76382;Laerm;65202;52.520;10.528;2024-03-17T07:22:15;39.27;34.27;54.66;;
76382;Laerm;65202;52.520;10.528;2024-03-17T07:24:42;43.31;34.51;60.57;;
76382;Laerm;65202;52.520;10.528;2024-03-17T07:27:10;43.33;33.03;58.30;;
76382;Laerm;65202;52.520;10.528;2024-03-17T07:29:40;44.56;35.03;59.55;;
76382;Laerm;65202;52.520;10.528;2024-03-17T07:32:06;46.33;33.05;64.21;;
76382;Laerm;65202;52.520;10.528;2024-03-17T07:34:33;45.66;32.37;59.08;;
76382;Laerm;65202;52.520;10.528;2024-03-17T07:37:01;45.08;34.41;61.87;;
76382;Laerm;65202;52.520;10.528;2024-03-17T07:39:30;46.34;35.00;60.35;;
76382;Laerm;65202;52.520;10.528;2024-03-17T07:41:59;47.43;35.19;61.13;;
76382;Laerm;65202;52.520;10.528;2024-03-17T07:44:28;47.70;34.16;68.82;;
76382;Laerm;65202;52.520;10.528;2024-03-17T07:47:01;47.87;35.17;76.59;;
76382;Laerm;65202;52.520;10.528;2024-03-17T07:49:27;46.20;33.02;61.04;;
76382;Laerm;65202;52.520;10.528;2024-03-17T07:51:54;45.42;34.17;64.92;;
76382;Laerm;65202;52.520;10.528;2024-03-17T07:54:20;50.70;34.26;67.35;;
76382;Laerm;65202;52.520;10.528;2024-03-17T07:56:47;46.43;35.19;64.47;;
76382;Laerm;65202;52.520;10.528;2024-03-17T07:59:13;46.83;35.56;62.36;;
76382;Laerm;65202;52.520;10.528;2024-03-17T08:01:44;45.80;35.34;58.10;;
76382;Laerm;65202;52.520;10.528;2024-03-17T08:04:12;46.06;33.36;66.08;;
76382;Laerm;65202;52.520;10.528;2024-03-17T08:06:39;46.33;34.97;56.47;;
76382;Laerm;65202;52.520;10.528;2024-03-17T08:09:10;48.29;34.28;65.39;;
76382;Laerm;65202;52.520;10.528;2024-03-17T08:11:38;42.86;33.60;54.56;;
76382;Laerm;65202;52.520;10.528;2024-03-17T08:14:05;45.88;33.73;66.52;;
76382;Laerm;65202;52.520;10.528;2024-03-17T08:16:32;44.79;33.09;55.97;;
76382;Laerm;65202;52.520;10.528;2024-03-17T08:18:59;42.74;32.55;54.22;;
76382;Laerm;65202;52.520;10.528;2024-03-17T08:21:25;44.36;33.07;67.72;;
76382;Laerm;65202;52.520;10.528;2024-03-17T08:23:55;42.82;33.59;55.23;;
76382;Laerm;65202;52.520;10.528;2024-03-17T08:26:22;46.45;33.92;66.93;;
76382;Laerm;65202;52.520;10.528;2024-03-17T08:28:48;42.59;32.80;58.58;;
76382;Laerm;65202;52.520;10.528;2024-03-17T08:31:15;48.34;33.30;66.32;;
76382;Laerm;65202;52.520;10.528;2024-03-17T08:33:44;43.19;33.22;54.11;;
76382;Laerm;65202;52.520;10.528;2024-03-17T08:36:10;52.09;32.74;79.57;;
76382;Laerm;65202;52.520;10.528;2024-03-17T08:38:37;48.69;33.69;70.25;;
76382;Laerm;65202;52.520;10.528;2024-03-17T08:41:07;47.93;34.36;60.89;;
76382;Laerm;65202;52.520;10.528;2024-03-17T08:43:35;44.10;33.83;59.96;;
76382;Laerm;65202;52.520;10.528;2024-03-17T08:46:03;43.33;33.30;54.92;;
76382;Laerm;65202;52.520;10.528;2024-03-17T08:48:33;44.04;33.68;61.17;;
76382;Laerm;65202;52.520;10.528;2024-03-17T08:51:01;45.59;34.48;59.03;;
76382;Laerm;65202;52.520;10.528;2024-03-17T08:53:28;45.17;33.99;62.81;;
76382;Laerm;65202;52.520;10.528;2024-03-17T08:55:56;43.37;33.69;58.66;;
76382;Laerm;65202;52.520;10.528;2024-03-17T08:58:23;45.24;35.04;55.75;;
76382;Laerm;65202;52.520;10.528;2024-03-17T09:00:50;44.80;33.65;61.10;;
76382;Laerm;65202;52.520;10.528;2024-03-17T09:03:20;45.67;32.92;59.85;;
76382;Laerm;65202;52.520;10.528;2024-03-17T09:05:48;41.96;33.06;53.50;;
76382;Laerm;65202;52.520;10.528;2024-03-17T09:08:22;42.88;32.46;58.93;;
76382;Laerm;65202;52.520;10.528;2024-03-17T09:10:51;43.51;32.97;55.29;;
76382;Laerm;65202;52.520;10.528;2024-03-17T09:13:21;43.35;32.89;57.81;;
76382;Laerm;65202;52.520;10.528;2024-03-17T09:16:00;46.56;33.65;61.13;;
76382;Laerm;65202;52.520;10.528;2024-03-17T09:18:34;43.24;32.64;58.49;;
76382;Laerm;65202;52.520;10.528;2024-03-17T09:21:07;47.86;32.82;68.69;;
76382;Laerm;65202;52.520;10.528;2024-03-17T09:23:36;42.79;32.58;60.45;;
76382;Laerm;65202;52.520;10.528;2024-03-17T09:26:08;48.87;34.17;62.86;;
76382;Laerm;65202;52.520;10.528;2024-03-17T09:28:36;44.61;34.87;60.12;;
76382;Laerm;65202;52.520;10.528;2024-03-17T09:31:03;49.70;35.81;64.53;;
76382;Laerm;65202;52.520;10.528;2024-03-17T09:33:35;46.34;33.76;62.44;;
76382;Laerm;65202;52.520;10.528;2024-03-17T09:36:08;47.93;34.37;62.99;;
76382;Laerm;65202;52.520;10.528;2024-03-17T09:38:37;47.29;33.44;61.62;;
76382;Laerm;65202;52.520;10.528;2024-03-17T09:41:06;47.82;34.46;60.49;;
76382;Laerm;65202;52.520;10.528;2024-03-17T09:43:35;45.57;34.09;60.94;;
76382;Laerm;65202;52.520;10.528;2024-03-17T09:46:03;48.48;35.25;61.57;;
76382;Laerm;65202;52.520;10.528;2024-03-17T09:48:30;50.30;33.82;66.26;;
76382;Laerm;65202;52.520;10.528;2024-03-17T09:50:59;47.51;34.31;61.08;;
76382;Laerm;65202;52.520;10.528;2024-03-17T09:53:32;47.10;33.35;61.53;;
76382;Laerm;65202;52.520;10.528;2024-03-17T09:56:15;43.73;33.15;61.84;;
76382;Laerm;65202;52.520;10.528;2024-03-17T09:58:42;43.64;32.70;57.36;;
76382;Laerm;65202;52.520;10.528;2024-03-17T10:01:09;45.00;32.90;63.32;;
76382;Laerm;65202;52.520;10.528;2024-03-17T10:03:52;49.24;33.69;67.00;;
76382;Laerm;65202;52.520;10.528;2024-03-17T10:06:23;54.56;34.51;66.65;;
76382;Laerm;65202;52.520;10.528;2024-03-17T10:08:58;48.18;33.92;65.78;;
76382;Laerm;65202;52.520;10.528;2024-03-17T10:11:35;43.90;33.34;64.46;;
76382;Laerm;65202;52.520;10.528;2024-03-17T10:14:08;44.21;33.15;59.01;;
76382;Laerm;65202;52.520;10.528;2024-03-17T10:16:37;42.42;32.72;55.31;;
76382;Laerm;65202;52.520;10.528;2024-03-17T10:21:45;46.69;33.84;68.46;;
76382;Laerm;65202;52.520;10.528;2024-03-17T10:24:23;43.58;33.53;63.48;;
76382;Laerm;65202;52.520;10.528;2024-03-17T10:26:53;49.54;33.09;65.77;;
76382;Laerm;65202;52.520;10.528;2024-03-17T10:29:28;51.31;33.57;71.24;;
76382;Laerm;65202;52.520;10.528;2024-03-17T10:32:13;46.31;33.56;63.25;;
76382;Laerm;65202;52.520;10.528;2024-03-17T10:34:40;41.76;32.79;61.19;;
76382;Laerm;65202;52.520;10.528;2024-03-17T10:37:16;46.62;33.21;61.32;;
76382;Laerm;65202;52.520;10.528;2024-03-17T10:39:46;43.22;33.91;61.56;;
76382;Laerm;65202;52.520;10.528;2024-03-17T10:42:29;44.49;34.78;63.59;;
76382;Laerm;65202;52.520;10.528;2024-03-17T10:44:58;44.16;34.71;55.24;;
76382;Laerm;65202;52.520;10.528;2024-03-17T10:47:26;45.86;34.91;69.62;;
76382;Laerm;65202;52.520;10.528;2024-03-17T10:49:55;45.14;33.57;58.47;;
76382;Laerm;65202;52.520;10.528;2024-03-17T10:52:23;42.82;34.25;54.52;;
76382;Laerm;65202;52.520;10.528;2024-03-17T10:54:53;42.06;34.01;54.06;;
76382;Laerm;65202;52.520;10.528;2024-03-17T11:00:06;51.84;35.45;70.30;;
76382;Laerm;65202;52.520;10.528;2024-03-17T11:02:36;44.21;34.88;61.49;;
76382;Laerm;65202;52.520;10.528;2024-03-17T11:05:29;49.10;35.46;70.43;;
76382;Laerm;65202;52.520;10.528;2024-03-17T11:08:02;45.42;35.75;58.83;;
76382;Laerm;65202;52.520;10.528;2024-03-17T11:10:34;42.76;34.64;63.51;;
76382;Laerm;65202;52.520;10.528;2024-03-17T11:13:02;46.67;34.75;65.84;;
76382;Laerm;65202;52.520;10.528;2024-03-17T11:20:44;49.34;34.43;68.54;;
76382;Laerm;65202;52.520;10.528;2024-03-17T11:23:27;43.70;33.57;59.69;;
76382;Laerm;65202;52.520;10.528;2024-03-17T11:25:56;50.84;35.78;67.03;;
76382;Laerm;65202;52.520;10.528;2024-03-17T11:28:45;45.97;35.62;69.47;;
76382;Laerm;65202;52.520;10.528;2024-03-17T11:31:39;48.75;34.13;64.99;;
76382;Laerm;65202;52.520;10.528;2024-03-17T11:34:38;49.06;35.60;65.95;;
76382;Laerm;65202;52.520;10.528;2024-03-17T11:37:05;42.73;33.04;55.17;;
76382;Laerm;65202;52.520;10.528;2024-03-17T11:39:52;42.99;34.47;55.61;;
76382;Laerm;65202;52.520;10.528;2024-03-17T11:42:24;47.88;33.46;66.33;;
76382;Laerm;65202;52.520;10.528;2024-03-17T11:45:05;50.72;35.75;66.18;;
76382;Laerm;65202;52.520;10.528;2024-03-17T11:47:37;49.00;34.86;65.67;;
76382;Laerm;65202;52.520;10.528;2024-03-17T11:50:08;42.98;34.41;61.00;;
76382;Laerm;65202;52.520;10.528;2024-03-17T11:52:37;45.20;33.55;63.22;;
76382;Laerm;65202;52.520;10.528;2024-03-17T11:55:05;48.68;33.24;68.29;;
76382;Laerm;65202;52.520;10.528;2024-03-17T11:57:31;48.33;33.70;67.95;;
76382;Laerm;65202;52.520;10.528;2024-03-17T11:59:58;48.71;34.07;66.78;;
76382;Laerm;65202;52.520;10.528;2024-03-17T12:02:30;48.88;33.33;67.49;;
76382;Laerm;65202;52.520;10.528;2024-03-17T12:04:59;51.13;34.05;65.28;;
76382;Laerm;65202;52.520;10.528;2024-03-17T12:07:26;46.90;36.27;65.09;;
76382;Laerm;65202;52.520;10.528;2024-03-17T12:09:54;48.88;34.48;63.22;;
76382;Laerm;65202;52.520;10.528;2024-03-17T12:12:26;43.81;34.24;59.08;;
76382;Laerm;65202;52.520;10.528;2024-03-17T12:15:15;43.78;33.11;58.67;;
76382;Laerm;65202;52.520;10.528;2024-03-17T12:17:42;41.16;33.61;54.97;;
76382;Laerm;65202;52.520;10.528;2024-03-17T12:20:20;41.89;34.04;54.26;;
76382;Laerm;65202;52.520;10.528;2024-03-17T12:22:48;42.11;34.82;55.54;;
76382;Laerm;65202;52.520;10.528;2024-03-17T12:25:20;46.59;33.45;73.23;;
76382;Laerm;65202;52.520;10.528;2024-03-17T12:27:47;47.80;33.85;61.28;;
76382;Laerm;65202;52.520;10.528;2024-03-17T12:30:15;48.99;33.87;67.38;;
76382;Laerm;65202;52.520;10.528;2024-03-17T12:32:44;44.07;33.13;62.05;;
76382;Laerm;65202;52.520;10.528;2024-03-17T12:35:14;43.87;32.96;58.97;;
76382;Laerm;65202;52.520;10.528;2024-03-17T12:37:45;43.09;33.11;58.04;;
76382;Laerm;65202;52.520;10.528;2024-03-17T12:40:23;45.55;33.78;57.63;;
76382;Laerm;65202;52.520;10.528;2024-03-17T12:42:51;44.94;34.20;58.21;;
76382;Laerm;65202;52.520;10.528;2024-03-17T12:45:21;46.32;34.51;61.50;;
76382;Laerm;65202;52.520;10.528;2024-03-17T12:47:51;44.59;34.05;61.69;;
76382;Laerm;65202;52.520;10.528;2024-03-17T12:50:18;44.48;33.54;57.71;;
76382;Laerm;65202;52.520;10.528;2024-03-17T12:52:55;44.40;34.72;59.93;;
76382;Laerm;65202;52.520;10.528;2024-03-17T12:55:23;48.67;34.12;63.33;;
76382;Laerm;65202;52.520;10.528;2024-03-17T12:58:10;50.49;33.46;70.94;;
76382;Laerm;65202;52.520;10.528;2024-03-17T13:01:08;47.27;33.48;64.11;;
76382;Laerm;65202;52.520;10.528;2024-03-17T13:03:36;46.01;33.69;70.85;;
76382;Laerm;65202;52.520;10.528;2024-03-17T13:06:10;46.77;32.88;78.95;;
76382;Laerm;65202;52.520;10.528;2024-03-17T13:08:40;44.79;32.78;62.56;;
76382;Laerm;65202;52.520;10.528;2024-03-17T13:11:08;50.27;33.54;68.73;;
76382;Laerm;65202;52.520;10.528;2024-03-17T13:13:35;47.17;34.91;63.65;;
76382;Laerm;65202;52.520;10.528;2024-03-17T13:16:02;43.82;33.77;61.95;;
76382;Laerm;65202;52.520;10.528;2024-03-17T13:18:29;50.47;34.91;68.44;;
76382;Laerm;65202;52.520;10.528;2024-03-17T13:20:55;54.15;34.35;85.66;;
76382;Laerm;65202;52.520;10.528;2024-03-17T13:23:24;48.56;34.53;68.81;;
76382;Laerm;65202;52.520;10.528;2024-03-17T13:25:51;50.93;34.96;75.77;;
76382;Laerm;65202;52.520;10.528;2024-03-17T13:28:17;48.76;33.61;67.91;;
76382;Laerm;65202;52.520;10.528;2024-03-17T13:30:44;48.82;36.01;65.36;;
76382;Laerm;65202;52.520;10.528;2024-03-17T13:33:10;52.56;35.50;67.82;;
76382;Laerm;65202;52.520;10.528;2024-03-17T13:35:42;50.32;33.71;66.57;;
76382;Laerm;65202;52.520;10.528;2024-03-17T13:38:10;52.79;35.37;66.78;;
76382;Laerm;65202;52.520;10.528;2024-03-17T13:40:40;50.54;35.07;67.54;;
76382;Laerm;65202;52.520;10.528;2024-03-17T13:43:08;48.80;35.55;65.20;;
76382;Laerm;65202;52.520;10.528;2024-03-17T13:45:41;44.83;34.18;64.00;;
76382;Laerm;65202;52.520;10.528;2024-03-17T13:48:07;47.50;35.13;61.55;;
76382;Laerm;65202;52.520;10.528;2024-03-17T13:50:38;45.42;34.91;62.33;;
76382;Laerm;65202;52.520;10.528;2024-03-17T13:53:05;48.34;34.80;63.38;;